Moab, UT

11:35 AM MST op 23 november 2014 (GMT -0700)
Canon Vista | Change Station
CLOSE
Current Station
Persoonlijk weerstation
Location: Moab, UT
Geometrische hoogte: 4183 ft
Nabije weerstations
Actief advies: Special Weather Statement Actieve aankondiging: Public Information Statement

Hoogte 4183 ft 38.56 °N, 109.53 °W | Updated 11 seconds ago

Gedeeltelijk bewolkt
Gedeeltelijk bewolkt
46.1 °F
Voelt als 41 °F
N
10.0
Wind Variabel Wind van NNW
Gusts 0.0 mijl/u

Vandaag
Hoog -- | Laag -- °F
--% Kans op neerslag
Gisteren
Hoog -- | Laag -- °F
Precip. -- inches
7:08 AM 4:59 PM
Nieuwe maan, 2% visible
Druk 30.03 inches
Zicht 10.0 mijlen
Wolken Helder
Gevoelstemperatuur 41 °F
Dauwpunt 19 °F
Vochtigheid 34%
Neerslag 0.00 inches
Dikte sneeuw Niet beschikbaar.
UV 3 van de 12
Pollen .10 van de 12
Luchtkwaliteit Niet beschikbaar.
Flu Activity Niet beschikbaar.
METAR KCNY 231753Z AUTO 29018KT 10SM CLR 06/M09 A3003 RMK AO2 SLP169 T00561089 10061 20011 51017

More Conditions Fewer Conditions

Druk 30.03 inches
Zicht 10.0 mijlen
Wolken Helder
Gevoelstemperatuur 41 °F
Dauwpunt 19 °F
Vochtigheid 34%
Neerslag 0.00 inches
Dikte sneeuw Niet beschikbaar.
UV 3 van de 12
Pollen .10 van de 12
Luchtkwaliteit Niet beschikbaar.
Flu Activity Niet beschikbaar.
METAR KCNY 231753Z AUTO 29018KT 10SM CLR 06/M09 A3003 RMK AO2 SLP169 T00561089 10061 20011 51017

More Conditions Fewer Conditions

10-Day Weather Forecast

Almanac

Astronomie

Nov. 23, 2014 Opkomst Ondergang
Werkelijke tijd
Burgerlijke schemering
Nautische schemering
Astronomische schemering
Maan
Golflengte van het zichtbare licht
Daglengte
Tomorrow will be .
, % of the Moon is Illuminated

Extremen vandaag

State Highs State Lows

Community

WunderPhotos

Upload Photos

1,773,126 foto’s ge-upload!

WunderBlogs® & News

Nearby

Luchtkwaliteit

  Luchtkwaliteit LK-index Verontreinigende stof
Not available.

Dikte sneeuw

Station Depth Geometrische hoogte

Aardbevingen

Stad Distance Mag. Time & Date
Minimum magnitude displayed is 2.5.

Watertemperatuur langs de kust

Plaats Temperatuur

Nabije weerstations